sensor_id;sensor_type;location;lat;lon;timestamp;P1;durP1;ratioP1;P2;durP2;ratioP2
52948;SDS011;38812;50.942;3.644;2022-12-20T00:01:08;9.93;;;3.22;;
52948;SDS011;38812;50.942;3.644;2022-12-20T00:03:34;6.72;;;3.90;;
52948;SDS011;38812;50.942;3.644;2022-12-20T00:06:00;8.23;;;3.20;;
52948;SDS011;38812;50.942;3.644;2022-12-20T00:08:25;6.32;;;3.22;;
52948;SDS011;38812;50.942;3.644;2022-12-20T00:10:51;4.78;;;2.78;;
52948;SDS011;38812;50.942;3.644;2022-12-20T00:13:16;11.27;;;3.53;;
52948;SDS011;38812;50.942;3.644;2022-12-20T00:15:41;7.95;;;3.83;;
52948;SDS011;38812;50.942;3.644;2022-12-20T00:18:07;7.05;;;3.72;;
52948;SDS011;38812;50.942;3.644;2022-12-20T00:20:32;6.32;;;2.78;;
52948;SDS011;38812;50.942;3.644;2022-12-20T00:22:57;6.30;;;3.20;;
52948;SDS011;38812;50.942;3.644;2022-12-20T00:25:23;6.25;;;3.22;;
52948;SDS011;38812;50.942;3.644;2022-12-20T00:27:48;8.07;;;3.30;;
52948;SDS011;38812;50.942;3.644;2022-12-20T00:30:14;7.70;;;3.25;;
52948;SDS011;38812;50.942;3.644;2022-12-20T00:32:40;8.45;;;4.60;;
52948;SDS011;38812;50.942;3.644;2022-12-20T00:35:06;5.68;;;3.03;;
52948;SDS011;38812;50.942;3.644;2022-12-20T00:37:32;8.80;;;3.55;;
52948;SDS011;38812;50.942;3.644;2022-12-20T00:39:57;5.50;;;3.33;;
52948;SDS011;38812;50.942;3.644;2022-12-20T00:42:23;5.53;;;3.30;;
52948;SDS011;38812;50.942;3.644;2022-12-20T00:44:48;5.25;;;3.20;;
52948;SDS011;38812;50.942;3.644;2022-12-20T00:47:13;6.13;;;3.33;;
52948;SDS011;38812;50.942;3.644;2022-12-20T00:49:39;6.80;;;3.55;;
52948;SDS011;38812;50.942;3.644;2022-12-20T00:52:05;4.63;;;3.55;;
52948;SDS011;38812;50.942;3.644;2022-12-20T00:54:31;5.57;;;3.22;;
52948;SDS011;38812;50.942;3.644;2022-12-20T00:56:56;8.48;;;3.05;;
52948;SDS011;38812;50.942;3.644;2022-12-20T00:59:22;5.90;;;3.08;;
52948;SDS011;38812;50.942;3.644;2022-12-20T01:01:47;7.22;;;3.00;;
52948;SDS011;38812;50.942;3.644;2022-12-20T01:04:12;6.10;;;2.92;;
52948;SDS011;38812;50.942;3.644;2022-12-20T01:06:38;5.93;;;2.90;;
52948;SDS011;38812;50.942;3.644;2022-12-20T01:09:03;8.15;;;3.22;;
52948;SDS011;38812;50.942;3.644;2022-12-20T01:11:30;9.93;;;3.40;;
52948;SDS011;38812;50.942;3.644;2022-12-20T01:13:58;6.63;;;3.13;;
52948;SDS011;38812;50.942;3.644;2022-12-20T01:16:27;6.85;;;3.13;;
52948;SDS011;38812;50.942;3.644;2022-12-20T01:18:55;6.50;;;2.97;;
52948;SDS011;38812;50.942;3.644;2022-12-20T01:21:21;7.10;;;2.85;;
52948;SDS011;38812;50.942;3.644;2022-12-20T01:23:49;6.00;;;3.08;;
52948;SDS011;38812;50.942;3.644;2022-12-20T01:26:16;7.07;;;2.35;;
52948;SDS011;38812;50.942;3.644;2022-12-20T01:28:45;7.03;;;3.28;;
52948;SDS011;38812;50.942;3.644;2022-12-20T01:31:13;6.00;;;3.05;;
52948;SDS011;38812;50.942;3.644;2022-12-20T01:33:40;10.40;;;3.28;;
52948;SDS011;38812;50.942;3.644;2022-12-20T01:36:09;4.70;;;2.20;;
52948;SDS011;38812;50.942;3.644;2022-12-20T01:38:36;5.38;;;2.70;;
52948;SDS011;38812;50.942;3.644;2022-12-20T01:41:02;4.38;;;2.67;;
52948;SDS011;38812;50.942;3.644;2022-12-20T01:43:48;7.72;;;2.47;;
52948;SDS011;38812;50.942;3.644;2022-12-20T01:46:13;7.22;;;2.55;;
52948;SDS011;38812;50.942;3.644;2022-12-20T01:48:40;10.15;;;2.80;;
52948;SDS011;38812;50.942;3.644;2022-12-20T01:51:08;3.97;;;2.20;;
52948;SDS011;38812;50.942;3.644;2022-12-20T01:53:34;3.90;;;2.40;;
52948;SDS011;38812;50.942;3.644;2022-12-20T01:56:00;8.18;;;3.25;;
52948;SDS011;38812;50.942;3.644;2022-12-20T01:58:29;3.70;;;2.50;;
52948;SDS011;38812;50.942;3.644;2022-12-20T02:00:56;6.28;;;2.50;;
52948;SDS011;38812;50.942;3.644;2022-12-20T02:03:22;9.73;;;3.20;;
52948;SDS011;38812;50.942;3.644;2022-12-20T02:05:47;9.90;;;2.50;;
52948;SDS011;38812;50.942;3.644;2022-12-20T02:08:14;7.57;;;2.67;;
52948;SDS011;38812;50.942;3.644;2022-12-20T02:13:36;6.18;;;3.35;;
52948;SDS011;38812;50.942;3.644;2022-12-20T02:16:14;9.75;;;3.05;;
52948;SDS011;38812;50.942;3.644;2022-12-20T02:18:52;9.57;;;2.88;;
52948;SDS011;38812;50.942;3.644;2022-12-20T02:21:41;5.88;;;2.45;;
52948;SDS011;38812;50.942;3.644;2022-12-20T02:29:39;5.97;;;2.80;;
52948;SDS011;38812;50.942;3.644;2022-12-20T02:35:27;3.60;;;2.20;;
52948;SDS011;38812;50.942;3.644;2022-12-20T02:37:59;6.72;;;2.47;;
52948;SDS011;38812;50.942;3.644;2022-12-20T02:40:27;7.78;;;2.53;;
52948;SDS011;38812;50.942;3.644;2022-12-20T02:43:02;5.15;;;2.72;;
52948;SDS011;38812;50.942;3.644;2022-12-20T02:45:50;5.82;;;2.40;;
52948;SDS011;38812;50.942;3.644;2022-12-20T02:48:18;3.95;;;2.40;;
52948;SDS011;38812;50.942;3.644;2022-12-20T02:50:45;7.50;;;2.78;;
52948;SDS011;38812;50.942;3.644;2022-12-20T02:53:14;9.00;;;2.60;;
52948;SDS011;38812;50.942;3.644;2022-12-20T02:58:11;8.32;;;2.67;;
52948;SDS011;38812;50.942;3.644;2022-12-20T03:00:52;5.15;;;2.58;;
52948;SDS011;38812;50.942;3.644;2022-12-20T03:03:20;7.78;;;2.65;;
52948;SDS011;38812;50.942;3.644;2022-12-20T03:05:46;7.65;;;2.80;;
52948;SDS011;38812;50.942;3.644;2022-12-20T03:08:14;7.53;;;2.38;;
52948;SDS011;38812;50.942;3.644;2022-12-20T03:10:39;4.00;;;2.28;;
52948;SDS011;38812;50.942;3.644;2022-12-20T03:13:05;9.15;;;2.80;;
52948;SDS011;38812;50.942;3.644;2022-12-20T03:15:30;5.88;;;2.65;;
52948;SDS011;38812;50.942;3.644;2022-12-20T03:17:55;5.70;;;2.47;;
52948;SDS011;38812;50.942;3.644;2022-12-20T03:20:21;7.10;;;2.50;;
52948;SDS011;38812;50.942;3.644;2022-12-20T03:22:46;4.68;;;2.60;;
52948;SDS011;38812;50.942;3.644;2022-12-20T03:25:12;4.28;;;2.50;;
52948;SDS011;38812;50.942;3.644;2022-12-20T03:27:37;4.82;;;2.22;;
52948;SDS011;38812;50.942;3.644;2022-12-20T03:30:03;5.60;;;2.70;;
52948;SDS011;38812;50.942;3.644;2022-12-20T03:32:29;7.45;;;2.53;;
52948;SDS011;38812;50.942;3.644;2022-12-20T03:34:55;8.10;;;2.67;;
52948;SDS011;38812;50.942;3.644;2022-12-20T03:37:20;4.22;;;2.03;;
52948;SDS011;38812;50.942;3.644;2022-12-20T03:39:46;4.65;;;2.22;;
52948;SDS011;38812;50.942;3.644;2022-12-20T03:42:11;5.68;;;2.30;;
52948;SDS011;38812;50.942;3.644;2022-12-20T03:44:36;9.10;;;3.40;;
52948;SDS011;38812;50.942;3.644;2022-12-20T03:47:02;4.95;;;2.60;;
52948;SDS011;38812;50.942;3.644;2022-12-20T03:49:27;5.85;;;2.63;;
52948;SDS011;38812;50.942;3.644;2022-12-20T03:51:53;6.30;;;2.63;;
52948;SDS011;38812;50.942;3.644;2022-12-20T03:54:18;5.45;;;2.65;;
52948;SDS011;38812;50.942;3.644;2022-12-20T03:56:44;6.57;;;2.60;;
52948;SDS011;38812;50.942;3.644;2022-12-20T03:59:09;3.40;;;2.47;;
52948;SDS011;38812;50.942;3.644;2022-12-20T04:01:34;6.22;;;2.50;;
52948;SDS011;38812;50.942;3.644;2022-12-20T04:04:01;8.60;;;2.72;;
52948;SDS011;38812;50.942;3.644;2022-12-20T04:06:27;4.05;;;2.22;;
52948;SDS011;38812;50.942;3.644;2022-12-20T04:08:53;8.23;;;2.28;;
52948;SDS011;38812;50.942;3.644;2022-12-20T04:11:18;4.50;;;1.90;;
52948;SDS011;38812;50.942;3.644;2022-12-20T04:13:44;5.90;;;2.33;;
52948;SDS011;38812;50.942;3.644;2022-12-20T04:16:11;7.40;;;2.85;;
52948;SDS011;38812;50.942;3.644;2022-12-20T04:18:37;4.93;;;1.83;;
52948;SDS011;38812;50.942;3.644;2022-12-20T04:21:03;11.18;;;2.30;;
52948;SDS011;38812;50.942;3.644;2022-12-20T04:23:31;5.57;;;2.38;;
52948;SDS011;38812;50.942;3.644;2022-12-20T04:26:01;7.97;;;2.60;;
52948;SDS011;38812;50.942;3.644;2022-12-20T04:28:28;6.07;;;2.40;;
52948;SDS011;38812;50.942;3.644;2022-12-20T04:30:54;7.50;;;3.58;;
52948;SDS011;38812;50.942;3.644;2022-12-20T04:33:20;4.03;;;2.08;;
52948;SDS011;38812;50.942;3.644;2022-12-20T04:35:46;6.38;;;2.35;;
52948;SDS011;38812;50.942;3.644;2022-12-20T04:38:11;4.55;;;2.00;;
52948;SDS011;38812;50.942;3.644;2022-12-20T04:40:37;4.97;;;1.88;;
52948;SDS011;38812;50.942;3.644;2022-12-20T04:43:02;5.88;;;2.00;;
52948;SDS011;38812;50.942;3.644;2022-12-20T04:45:27;3.65;;;2.08;;
52948;SDS011;38812;50.942;3.644;2022-12-20T04:47:53;6.50;;;2.00;;
52948;SDS011;38812;50.942;3.644;2022-12-20T04:50:18;5.55;;;2.05;;
52948;SDS011;38812;50.942;3.644;2022-12-20T04:52:44;5.38;;;2.55;;
52948;SDS011;38812;50.942;3.644;2022-12-20T04:55:28;10.20;;;2.38;;
52948;SDS011;38812;50.942;3.644;2022-12-20T04:57:53;4.30;;;1.98;;
52948;SDS011;38812;50.942;3.644;2022-12-20T05:00:19;4.90;;;1.88;;
52948;SDS011;38812;50.942;3.644;2022-12-20T05:02:45;5.35;;;2.17;;
52948;SDS011;38812;50.942;3.644;2022-12-20T05:05:10;5.00;;;1.90;;
52948;SDS011;38812;50.942;3.644;2022-12-20T05:07:36;6.53;;;2.55;;
52948;SDS011;38812;50.942;3.644;2022-12-20T05:10:02;8.20;;;2.22;;
52948;SDS011;38812;50.942;3.644;2022-12-20T05:12:28;3.50;;;1.80;;
52948;SDS011;38812;50.942;3.644;2022-12-20T05:14:53;4.30;;;2.20;;
52948;SDS011;38812;50.942;3.644;2022-12-20T05:17:19;8.68;;;2.83;;
52948;SDS011;38812;50.942;3.644;2022-12-20T05:19:44;5.15;;;2.05;;
52948;SDS011;38812;50.942;3.644;2022-12-20T05:22:09;4.68;;;1.98;;
52948;SDS011;38812;50.942;3.644;2022-12-20T05:24:53;3.13;;;1.77;;
52948;SDS011;38812;50.942;3.644;2022-12-20T05:27:37;3.90;;;1.73;;
52948;SDS011;38812;50.942;3.644;2022-12-20T05:30:03;3.38;;;1.73;;
52948;SDS011;38812;50.942;3.644;2022-12-20T05:32:29;2.70;;;1.73;;
52948;SDS011;38812;50.942;3.644;2022-12-20T05:34:54;4.07;;;2.03;;
52948;SDS011;38812;50.942;3.644;2022-12-20T05:37:20;4.60;;;2.40;;
52948;SDS011;38812;50.942;3.644;2022-12-20T05:39:45;3.88;;;1.88;;
52948;SDS011;38812;50.942;3.644;2022-12-20T05:42:11;2.30;;;1.83;;
52948;SDS011;38812;50.942;3.644;2022-12-20T05:44:36;5.40;;;2.13;;
52948;SDS011;38812;50.942;3.644;2022-12-20T05:47:02;3.30;;;1.50;;
52948;SDS011;38812;50.942;3.644;2022-12-20T05:49:27;3.72;;;1.88;;
52948;SDS011;38812;50.942;3.644;2022-12-20T05:51:52;7.07;;;2.00;;
52948;SDS011;38812;50.942;3.644;2022-12-20T05:54:18;8.32;;;1.80;;
52948;SDS011;38812;50.942;3.644;2022-12-20T05:56:43;5.22;;;2.03;;
52948;SDS011;38812;50.942;3.644;2022-12-20T05:59:09;3.53;;;1.90;;
52948;SDS011;38812;50.942;3.644;2022-12-20T06:01:34;11.45;;;2.08;;
52948;SDS011;38812;50.942;3.644;2022-12-20T06:04:00;3.88;;;1.58;;
52948;SDS011;38812;50.942;3.644;2022-12-20T06:06:26;4.50;;;2.10;;
52948;SDS011;38812;50.942;3.644;2022-12-20T06:08:51;7.28;;;2.10;;
52948;SDS011;38812;50.942;3.644;2022-12-20T06:11:16;8.60;;;1.88;;
52948;SDS011;38812;50.942;3.644;2022-12-20T06:13:42;5.68;;;1.63;;
52948;SDS011;38812;50.942;3.644;2022-12-20T06:16:07;5.00;;;1.67;;
52948;SDS011;38812;50.942;3.644;2022-12-20T06:18:33;4.22;;;1.80;;
52948;SDS011;38812;50.942;3.644;2022-12-20T06:20:58;5.40;;;1.80;;
52948;SDS011;38812;50.942;3.644;2022-12-20T06:23:24;3.60;;;1.50;;
52948;SDS011;38812;50.942;3.644;2022-12-20T06:25:49;4.10;;;1.60;;
52948;SDS011;38812;50.942;3.644;2022-12-20T06:28:15;3.15;;;1.63;;
52948;SDS011;38812;50.942;3.644;2022-12-20T06:30:50;6.32;;;2.25;;
52948;SDS011;38812;50.942;3.644;2022-12-20T06:33:19;3.67;;;1.67;;
52948;SDS011;38812;50.942;3.644;2022-12-20T06:35:45;5.55;;;1.80;;
52948;SDS011;38812;50.942;3.644;2022-12-20T06:38:10;6.25;;;1.80;;
52948;SDS011;38812;50.942;3.644;2022-12-20T06:40:36;5.95;;;1.92;;
52948;SDS011;38812;50.942;3.644;2022-12-20T06:43:01;3.50;;;1.55;;
52948;SDS011;38812;50.942;3.644;2022-12-20T06:45:27;5.85;;;1.83;;
52948;SDS011;38812;50.942;3.644;2022-12-20T06:47:52;4.25;;;1.90;;
52948;SDS011;38812;50.942;3.644;2022-12-20T06:50:17;3.75;;;1.45;;
52948;SDS011;38812;50.942;3.644;2022-12-20T06:52:43;4.20;;;1.25;;
52948;SDS011;38812;50.942;3.644;2022-12-20T06:55:08;6.13;;;2.05;;
52948;SDS011;38812;50.942;3.644;2022-12-20T06:57:33;7.32;;;3.63;;
52948;SDS011;38812;50.942;3.644;2022-12-20T06:59:59;5.75;;;2.03;;
52948;SDS011;38812;50.942;3.644;2022-12-20T07:02:24;3.90;;;1.90;;
52948;SDS011;38812;50.942;3.644;2022-12-20T07:04:50;8.68;;;2.33;;
52948;SDS011;38812;50.942;3.644;2022-12-20T07:07:15;7.50;;;1.80;;
52948;SDS011;38812;50.942;3.644;2022-12-20T07:09:41;9.00;;;2.28;;
52948;SDS011;38812;50.942;3.644;2022-12-20T07:12:07;9.93;;;2.20;;
52948;SDS011;38812;50.942;3.644;2022-12-20T07:14:33;7.00;;;1.85;;
52948;SDS011;38812;50.942;3.644;2022-12-20T07:16:58;3.72;;;2.25;;
52948;SDS011;38812;50.942;3.644;2022-12-20T07:19:24;7.25;;;2.47;;
52948;SDS011;38812;50.942;3.644;2022-12-20T07:21:50;7.53;;;2.47;;
52948;SDS011;38812;50.942;3.644;2022-12-20T07:24:15;8.68;;;3.28;;
52948;SDS011;38812;50.942;3.644;2022-12-20T07:26:42;12.25;;;2.30;;
52948;SDS011;38812;50.942;3.644;2022-12-20T07:29:08;3.72;;;2.08;;
52948;SDS011;38812;50.942;3.644;2022-12-20T07:31:33;5.75;;;1.88;;
52948;SDS011;38812;50.942;3.644;2022-12-20T07:33:59;18.08;;;8.65;;
52948;SDS011;38812;50.942;3.644;2022-12-20T07:36:24;9.10;;;3.88;;
52948;SDS011;38812;50.942;3.644;2022-12-20T07:38:50;10.80;;;2.72;;
52948;SDS011;38812;50.942;3.644;2022-12-20T07:41:15;4.80;;;2.40;;
52948;SDS011;38812;50.942;3.644;2022-12-20T07:43:44;6.43;;;2.40;;
52948;SDS011;38812;50.942;3.644;2022-12-20T07:46:11;4.07;;;2.65;;
52948;SDS011;38812;50.942;3.644;2022-12-20T07:48:38;7.63;;;2.03;;
52948;SDS011;38812;50.942;3.644;2022-12-20T07:51:08;6.47;;;2.50;;
52948;SDS011;38812;50.942;3.644;2022-12-20T07:53:47;3.85;;;2.22;;
52948;SDS011;38812;50.942;3.644;2022-12-20T07:56:15;5.72;;;2.25;;
52948;SDS011;38812;50.942;3.644;2022-12-20T07:58:44;6.40;;;2.35;;
52948;SDS011;38812;50.942;3.644;2022-12-20T08:01:10;10.02;;;2.50;;
52948;SDS011;38812;50.942;3.644;2022-12-20T08:03:38;14.38;;;2.90;;
52948;SDS011;38812;50.942;3.644;2022-12-20T08:06:07;6.90;;;2.10;;
52948;SDS011;38812;50.942;3.644;2022-12-20T08:08:34;4.45;;;2.40;;
52948;SDS011;38812;50.942;3.644;2022-12-20T08:11:02;6.60;;;2.00;;
52948;SDS011;38812;50.942;3.644;2022-12-20T08:13:28;6.22;;;2.17;;
52948;SDS011;38812;50.942;3.644;2022-12-20T08:15:55;6.35;;;2.78;;
52948;SDS011;38812;50.942;3.644;2022-12-20T08:18:20;12.57;;;3.03;;
52948;SDS011;38812;50.942;3.644;2022-12-20T08:20:46;9.07;;;2.30;;
52948;SDS011;38812;50.942;3.644;2022-12-20T08:23:11;5.97;;;2.42;;
52948;SDS011;38812;50.942;3.644;2022-12-20T08:25:37;8.13;;;2.92;;
52948;SDS011;38812;50.942;3.644;2022-12-20T08:28:02;8.07;;;2.35;;
52948;SDS011;38812;50.942;3.644;2022-12-20T08:30:28;8.13;;;2.33;;
52948;SDS011;38812;50.942;3.644;2022-12-20T08:32:54;6.05;;;2.00;;
52948;SDS011;38812;50.942;3.644;2022-12-20T08:35:20;4.85;;;1.80;;
52948;SDS011;38812;50.942;3.644;2022-12-20T08:37:45;7.00;;;2.15;;
52948;SDS011;38812;50.942;3.644;2022-12-20T08:40:11;4.78;;;2.25;;
52948;SDS011;38812;50.942;3.644;2022-12-20T08:42:36;9.43;;;2.40;;
52948;SDS011;38812;50.942;3.644;2022-12-20T08:45:02;7.10;;;3.15;;
52948;SDS011;38812;50.942;3.644;2022-12-20T08:47:28;4.35;;;2.40;;
52948;SDS011;38812;50.942;3.644;2022-12-20T08:49:54;11.40;;;2.67;;
52948;SDS011;38812;50.942;3.644;2022-12-20T08:52:19;6.47;;;3.22;;
52948;SDS011;38812;50.942;3.644;2022-12-20T08:54:45;7.05;;;2.45;;
52948;SDS011;38812;50.942;3.644;2022-12-20T08:57:11;12.43;;;2.30;;
52948;SDS011;38812;50.942;3.644;2022-12-20T08:59:36;11.10;;;2.47;;
52948;SDS011;38812;50.942;3.644;2022-12-20T09:02:02;10.02;;;2.63;;
52948;SDS011;38812;50.942;3.644;2022-12-20T09:04:27;4.22;;;2.13;;
52948;SDS011;38812;50.942;3.644;2022-12-20T09:06:52;5.28;;;2.10;;
52948;SDS011;38812;50.942;3.644;2022-12-20T09:09:18;4.90;;;2.80;;
52948;SDS011;38812;50.942;3.644;2022-12-20T09:11:43;11.05;;;2.75;;
52948;SDS011;38812;50.942;3.644;2022-12-20T09:14:09;5.13;;;2.30;;
52948;SDS011;38812;50.942;3.644;2022-12-20T09:16:34;4.00;;;2.50;;
52948;SDS011;38812;50.942;3.644;2022-12-20T09:19:00;3.88;;;2.53;;
52948;SDS011;38812;50.942;3.644;2022-12-20T09:21:26;12.23;;;2.83;;
52948;SDS011;38812;50.942;3.644;2022-12-20T09:23:52;12.88;;;2.55;;
52948;SDS011;38812;50.942;3.644;2022-12-20T09:26:19;4.65;;;1.85;;
52948;SDS011;38812;50.942;3.644;2022-12-20T09:28:46;5.85;;;2.30;;
52948;SDS011;38812;50.942;3.644;2022-12-20T09:31:13;6.38;;;2.53;;
52948;SDS011;38812;50.942;3.644;2022-12-20T09:33:40;12.40;;;2.38;;
52948;SDS011;38812;50.942;3.644;2022-12-20T09:36:06;8.10;;;2.55;;
52948;SDS011;38812;50.942;3.644;2022-12-20T09:38:36;11.52;;;2.67;;
52948;SDS011;38812;50.942;3.644;2022-12-20T09:41:02;7.45;;;2.55;;
52948;SDS011;38812;50.942;3.644;2022-12-20T09:43:29;15.48;;;2.55;;
52948;SDS011;38812;50.942;3.644;2022-12-20T09:45:58;10.32;;;3.10;;
52948;SDS011;38812;50.942;3.644;2022-12-20T09:48:28;5.50;;;2.13;;
52948;SDS011;38812;50.942;3.644;2022-12-20T09:56:26;10.75;;;2.50;;
52948;SDS011;38812;50.942;3.644;2022-12-20T10:01:23;7.57;;;2.50;;
52948;SDS011;38812;50.942;3.644;2022-12-20T10:03:50;6.82;;;2.50;;
52948;SDS011;38812;50.942;3.644;2022-12-20T10:09:21;5.70;;;3.15;;
52948;SDS011;38812;50.942;3.644;2022-12-20T10:17:37;13.13;;;2.90;;
52948;SDS011;38812;50.942;3.644;2022-12-20T10:23:12;9.23;;;3.00;;
52948;SDS011;38812;50.942;3.644;2022-12-20T10:25:42;11.57;;;2.90;;
52948;SDS011;38812;50.942;3.644;2022-12-20T10:28:15;13.88;;;3.40;;
52948;SDS011;38812;50.942;3.644;2022-12-20T10:30:41;8.95;;;3.55;;
52948;SDS011;38812;50.942;3.644;2022-12-20T10:33:11;9.55;;;4.07;;
52948;SDS011;38812;50.942;3.644;2022-12-20T10:35:42;12.07;;;3.90;;
52948;SDS011;38812;50.942;3.644;2022-12-20T10:38:11;9.65;;;3.40;;
52948;SDS011;38812;50.942;3.644;2022-12-20T10:43:34;7.68;;;3.72;;
52948;SDS011;38812;50.942;3.644;2022-12-20T10:46:07;10.90;;;3.15;;
52948;SDS011;38812;50.942;3.644;2022-12-20T10:48:34;8.35;;;3.58;;
52948;SDS011;38812;50.942;3.644;2022-12-20T10:54:00;7.10;;;3.17;;
52948;SDS011;38812;50.942;3.644;2022-12-20T10:58:59;10.02;;;3.55;;
52948;SDS011;38812;50.942;3.644;2022-12-20T11:01:28;14.68;;;3.70;;
52948;SDS011;38812;50.942;3.644;2022-12-20T11:04:27;11.90;;;3.38;;
52948;SDS011;38812;50.942;3.644;2022-12-20T11:06:53;11.65;;;3.63;;
52948;SDS011;38812;50.942;3.644;2022-12-20T11:11:59;10.70;;;3.65;;
52948;SDS011;38812;50.942;3.644;2022-12-20T11:14:30;13.60;;;3.70;;
52948;SDS011;38812;50.942;3.644;2022-12-20T11:16:57;11.02;;;4.78;;
52948;SDS011;38812;50.942;3.644;2022-12-20T11:22:36;6.57;;;3.30;;
52948;SDS011;38812;50.942;3.644;2022-12-20T11:28:12;9.15;;;4.50;;
52948;SDS011;38812;50.942;3.644;2022-12-20T11:30:57;15.77;;;4.40;;
52948;SDS011;38812;50.942;3.644;2022-12-20T11:38:42;11.80;;;4.32;;
52948;SDS011;38812;50.942;3.644;2022-12-20T11:41:33;6.88;;;3.85;;
52948;SDS011;38812;50.942;3.644;2022-12-20T11:52:15;13.60;;;4.70;;
52948;SDS011;38812;50.942;3.644;2022-12-20T11:57:53;6.43;;;3.95;;
52948;SDS011;38812;50.942;3.644;2022-12-20T12:00:25;7.85;;;3.70;;
52948;SDS011;38812;50.942;3.644;2022-12-20T12:02:53;7.65;;;4.07;;
52948;SDS011;38812;50.942;3.644;2022-12-20T12:05:27;9.07;;;4.35;;
52948;SDS011;38812;50.942;3.644;2022-12-20T12:07:55;9.70;;;4.10;;
52948;SDS011;38812;50.942;3.644;2022-12-20T12:10:34;6.57;;;3.88;;
52948;SDS011;38812;50.942;3.644;2022-12-20T12:13:05;7.63;;;4.05;;
52948;SDS011;38812;50.942;3.644;2022-12-20T12:18:19;9.90;;;3.97;;
52948;SDS011;38812;50.942;3.644;2022-12-20T12:26:26;7.30;;;4.45;;
52948;SDS011;38812;50.942;3.644;2022-12-20T12:29:05;7.28;;;3.83;;
52948;SDS011;38812;50.942;3.644;2022-12-20T12:45:02;12.85;;;4.60;;
52948;SDS011;38812;50.942;3.644;2022-12-20T12:47:39;9.80;;;4.85;;
52948;SDS011;38812;50.942;3.644;2022-12-20T12:50:17;9.07;;;4.63;;
52948;SDS011;38812;50.942;3.644;2022-12-20T12:52:52;9.32;;;4.88;;
52948;SDS011;38812;50.942;3.644;2022-12-20T12:55:39;8.80;;;5.45;;
52948;SDS011;38812;50.942;3.644;2022-12-20T13:00:53;12.38;;;4.50;;
52948;SDS011;38812;50.942;3.644;2022-12-20T13:03:42;13.10;;;4.93;;
52948;SDS011;38812;50.942;3.644;2022-12-20T13:16:35;10.07;;;4.20;;
52948;SDS011;38812;50.942;3.644;2022-12-20T13:19:08;14.20;;;5.68;;
52948;SDS011;38812;50.942;3.644;2022-12-20T13:21:37;12.95;;;5.75;;
52948;SDS011;38812;50.942;3.644;2022-12-20T13:32:50;15.40;;;6.05;;
52948;SDS011;38812;50.942;3.644;2022-12-20T13:40:53;11.90;;;5.10;;
52948;SDS011;38812;50.942;3.644;2022-12-20T13:45:52;12.30;;;4.88;;
52948;SDS011;38812;50.942;3.644;2022-12-20T13:48:24;11.32;;;4.70;;
52948;SDS011;38812;50.942;3.644;2022-12-20T13:50:55;10.50;;;5.07;;
52948;SDS011;38812;50.942;3.644;2022-12-20T13:53:23;8.32;;;5.15;;
52948;SDS011;38812;50.942;3.644;2022-12-20T13:55:51;9.05;;;4.47;;
52948;SDS011;38812;50.942;3.644;2022-12-20T13:58:24;8.48;;;5.15;;
52948;SDS011;38812;50.942;3.644;2022-12-20T14:00:52;9.00;;;5.22;;
52948;SDS011;38812;50.942;3.644;2022-12-20T14:03:19;9.07;;;5.50;;
52948;SDS011;38812;50.942;3.644;2022-12-20T14:05:45;8.63;;;5.30;;
52948;SDS011;38812;50.942;3.644;2022-12-20T14:08:15;9.57;;;5.50;;
52948;SDS011;38812;50.942;3.644;2022-12-20T14:10:44;8.77;;;4.97;;
52948;SDS011;38812;50.942;3.644;2022-12-20T14:13:20;12.15;;;5.93;;
52948;SDS011;38812;50.942;3.644;2022-12-20T14:15:51;11.27;;;5.68;;
52948;SDS011;38812;50.942;3.644;2022-12-20T14:20:45;22.08;;;6.90;;
52948;SDS011;38812;50.942;3.644;2022-12-20T14:23:15;15.32;;;7.50;;
52948;SDS011;38812;50.942;3.644;2022-12-20T14:25:47;12.85;;;5.65;;
52948;SDS011;38812;50.942;3.644;2022-12-20T14:30:41;18.90;;;8.45;;
52948;SDS011;38812;50.942;3.644;2022-12-20T14:33:24;12.98;;;8.70;;
52948;SDS011;38812;50.942;3.644;2022-12-20T14:35:53;13.55;;;7.57;;
52948;SDS011;38812;50.942;3.644;2022-12-20T14:38:23;12.05;;;7.32;;
52948;SDS011;38812;50.942;3.644;2022-12-20T14:40:54;15.18;;;8.00;;
52948;SDS011;38812;50.942;3.644;2022-12-20T14:43:41;12.93;;;7.63;;
52948;SDS011;38812;50.942;3.644;2022-12-20T14:48:44;17.42;;;8.57;;
52948;SDS011;38812;50.942;3.644;2022-12-20T14:51:11;18.52;;;11.00;;
52948;SDS011;38812;50.942;3.644;2022-12-20T14:53:44;19.83;;;8.90;;
52948;SDS011;38812;50.942;3.644;2022-12-20T14:56:15;19.63;;;9.10;;
52948;SDS011;38812;50.942;3.644;2022-12-20T14:58:43;15.88;;;8.77;;
52948;SDS011;38812;50.942;3.644;2022-12-20T15:01:18;14.70;;;8.43;;
52948;SDS011;38812;50.942;3.644;2022-12-20T15:03:52;17.92;;;8.98;;
52948;SDS011;38812;50.942;3.644;2022-12-20T15:09:12;17.90;;;9.27;;
52948;SDS011;38812;50.942;3.644;2022-12-20T15:11:38;15.13;;;8.73;;
52948;SDS011;38812;50.942;3.644;2022-12-20T15:17:00;18.38;;;7.97;;
52948;SDS011;38812;50.942;3.644;2022-12-20T15:19:27;16.17;;;7.45;;
52948;SDS011;38812;50.942;3.644;2022-12-20T15:21:55;16.48;;;7.57;;
52948;SDS011;38812;50.942;3.644;2022-12-20T15:24:22;16.73;;;8.38;;
52948;SDS011;38812;50.942;3.644;2022-12-20T15:26:49;12.00;;;8.07;;
52948;SDS011;38812;50.942;3.644;2022-12-20T15:29:16;15.05;;;7.82;;
52948;SDS011;38812;50.942;3.644;2022-12-20T15:31:41;14.00;;;7.90;;
52948;SDS011;38812;50.942;3.644;2022-12-20T15:34:18;12.73;;;8.50;;
52948;SDS011;38812;50.942;3.644;2022-12-20T15:36:52;11.32;;;7.82;;
52948;SDS011;38812;50.942;3.644;2022-12-20T15:39:18;22.70;;;12.45;;
52948;SDS011;38812;50.942;3.644;2022-12-20T15:41:46;14.13;;;9.23;;
52948;SDS011;38812;50.942;3.644;2022-12-20T15:44:14;11.07;;;7.65;;
52948;SDS011;38812;50.942;3.644;2022-12-20T15:46:43;15.63;;;7.75;;
52948;SDS011;38812;50.942;3.644;2022-12-20T15:49:11;13.30;;;8.60;;
52948;SDS011;38812;50.942;3.644;2022-12-20T15:51:38;15.85;;;8.27;;
52948;SDS011;38812;50.942;3.644;2022-12-20T15:56:54;14.82;;;8.27;;
52948;SDS011;38812;50.942;3.644;2022-12-20T15:59:33;14.98;;;8.45;;
52948;SDS011;38812;50.942;3.644;2022-12-20T16:01:58;13.85;;;9.00;;
52948;SDS011;38812;50.942;3.644;2022-12-20T16:04:24;14.85;;;8.50;;
52948;SDS011;38812;50.942;3.644;2022-12-20T16:06:50;12.13;;;9.55;;
52948;SDS011;38812;50.942;3.644;2022-12-20T16:09:17;16.70;;;9.80;;
52948;SDS011;38812;50.942;3.644;2022-12-20T16:11:43;19.75;;;10.23;;
52948;SDS011;38812;50.942;3.644;2022-12-20T16:14:15;17.48;;;9.63;;
52948;SDS011;38812;50.942;3.644;2022-12-20T16:16:45;18.30;;;10.25;;
52948;SDS011;38812;50.942;3.644;2022-12-20T16:19:12;15.05;;;9.68;;
52948;SDS011;38812;50.942;3.644;2022-12-20T16:21:41;15.13;;;10.02;;
52948;SDS011;38812;50.942;3.644;2022-12-20T16:24:12;17.02;;;12.27;;
52948;SDS011;38812;50.942;3.644;2022-12-20T16:26:39;15.05;;;11.93;;
52948;SDS011;38812;50.942;3.644;2022-12-20T16:29:04;20.25;;;12.88;;
52948;SDS011;38812;50.942;3.644;2022-12-20T16:31:31;15.10;;;11.98;;
52948;SDS011;38812;50.942;3.644;2022-12-20T16:34:02;19.85;;;11.60;;
52948;SDS011;38812;50.942;3.644;2022-12-20T16:36:29;20.98;;;12.68;;
52948;SDS011;38812;50.942;3.644;2022-12-20T16:38:54;16.55;;;12.48;;
52948;SDS011;38812;50.942;3.644;2022-12-20T16:41:24;21.50;;;13.55;;
52948;SDS011;38812;50.942;3.644;2022-12-20T16:43:54;24.15;;;16.92;;
52948;SDS011;38812;50.942;3.644;2022-12-20T16:46:22;29.42;;;20.58;;
52948;SDS011;38812;50.942;3.644;2022-12-20T16:48:53;28.23;;;19.35;;
52948;SDS011;38812;50.942;3.644;2022-12-20T16:54:18;21.80;;;15.50;;
52948;SDS011;38812;50.942;3.644;2022-12-20T16:56:46;16.38;;;12.07;;
52948;SDS011;38812;50.942;3.644;2022-12-20T16:59:13;18.85;;;14.93;;
52948;SDS011;38812;50.942;3.644;2022-12-20T17:01:39;22.05;;;14.85;;
52948;SDS011;38812;50.942;3.644;2022-12-20T17:04:08;15.07;;;12.55;;
52948;SDS011;38812;50.942;3.644;2022-12-20T17:06:38;18.20;;;13.68;;